Aviation Digital Data Service (ADDS)

Output produced by METARs form (1953 UTC 23 January 2019)
found at http://www.aviationweather.gov/metar/data/
 
Forecast for: LFTH (HYERES/LE PALYVE, FR)
Text: TAF LFTH 231400Z 2315/2415 34008KT CAVOK
Forecast period: 1500 to 2300 UTC 23 January 2019
Forecast type: FROM: standard forecast or significant change
Winds: from the NNW (340 degrees) at 9 MPH (8 knots; 4.1 m/s)
Visibility: 6 or more miles 10+ km)
Ceiling: unknown
Clouds: missing
Weather: NSW  (no significant weather)
Text: TEMPO 2319/2323 -RA SCT025TCU BKN025
Forecast period: 1900 to 2300 UTC 23 January 2019
Forecast type: TEMPORARY: The following changes expected for less than half the time period
Visibility: missing
Ceiling: 2500 feet AGL
Clouds: scattered clouds at 2500 feet AGL
broken clouds at 2500 feet AGL
Weather: -RA  (light rain)
Text: PROB30 2319/2323 -SNRA
Forecast period: 1900 to 2300 UTC 23 January 2019
Forecast type: PROBABLE: 30 percent likelihood of the following during this time
Visibility: missing
Ceiling: unknown
Clouds: missing
Weather: -SN -RA  (light snow, light rain)
Text: BECMG 2323/2401 34010KT
Forecast period: 2300 UTC 23 January 2019 to 1500 UTC 24 January 2019
Forecast type: BECOMING: Conditions expected to become as follows by 0100 UTC 24 January 2019
Winds: from the NNW (340 degrees) at 12 MPH (10 knots; 5.1 m/s)
Visibility: 6 or more miles 10+ km)
Ceiling: unknown
Clouds: missing
Weather: NSW  (no significant weather)